Time;durP1;ratioP1;P1;durP2;ratioP2;P2;SDS_P1;SDS_P2;PMS_P1;PMS_P2;Temp;Humidity;BMP_temperature;BMP_pressure;BME280_temperature;BME280_humidity;BME280_pressure;Samples;Min_cycle;Max_cycle;Signal;HPM_P1;HPM_P2
2022/03/04 00:02:08;;;;;;;45.67;30.00;;;;;;;-1.23;100.00;98826.13;10365479;28;20050;-76
2022/03/04 00:07:16;;;;;;;45.55;29.35;;;;;;;-1.27;100.00;98828.91;10366673;28;20569;-76
2022/03/04 00:12:19;;;;;;;38.22;25.80;;;;;;;-1.27;100.00;98818.34;10368556;28;20100;-76
2022/03/04 00:17:24;;;;;;;36.45;25.70;;;;;;;-1.20;100.00;98823.31;10364482;28;20038;-77
2022/03/04 00:22:27;;;;;;;53.70;32.50;;;;;;;-1.25;100.00;98827.06;10387540;28;20042;-77
2022/03/04 00:27:30;;;;;;;52.78;34.13;;;;;;;-1.20;100.00;98818.91;10377253;28;20124;-77
2022/03/04 00:32:35;;;;;;;51.13;33.55;;;;;;;-1.26;100.00;98822.69;10370582;28;20121;-76
2022/03/04 00:37:38;;;;;;;52.15;31.98;;;;;;;-1.54;100.00;98831.13;10366258;28;20053;-76
2022/03/04 00:42:41;;;;;;;55.78;34.05;;;;;;;-1.47;100.00;98837.81;10366935;28;20404;-76
2022/03/04 00:47:45;;;;;;;61.08;35.65;;;;;;;-1.61;100.00;98841.16;10368985;28;20048;-76
2022/03/04 00:52:48;;;;;;;58.35;35.65;;;;;;;-1.63;100.00;98835.06;10370265;28;20064;-76
2022/03/04 00:57:51;;;;;;;58.70;36.13;;;;;;;-1.57;100.00;98836.56;10375559;28;20129;-77
2022/03/04 01:02:56;;;;;;;59.83;36.50;;;;;;;-1.55;100.00;98832.91;10372737;28;20046;-76
2022/03/04 01:07:59;;;;;;;56.15;35.85;;;;;;;-1.57;100.00;98837.41;10386389;28;20080;-77
2022/03/04 01:13:02;;;;;;;56.90;37.35;;;;;;;-1.59;100.00;98841.91;10389859;28;20050;-79
2022/03/04 01:18:06;;;;;;;52.92;35.58;;;;;;;-1.60;100.00;98832.28;10380042;28;20380;-76
2022/03/04 01:23:10;;;;;;;53.28;34.75;;;;;;;-1.59;100.00;98825.22;10368281;28;20046;-77
2022/03/04 01:28:13;;;;;;;53.13;36.88;;;;;;;-1.58;100.00;98825.13;10378327;28;20039;-77
2022/03/04 01:33:17;;;;;;;54.20;36.72;;;;;;;-1.64;100.00;98830.72;10396953;28;20169;-76
2022/03/04 01:38:20;;;;;;;53.42;36.03;;;;;;;-1.62;100.00;98826.22;10392107;28;20060;-77
2022/03/04 01:43:24;;;;;;;54.38;35.97;;;;;;;-1.63;100.00;98827.16;10396008;28;20052;-76
2022/03/04 01:48:28;;;;;;;53.05;36.20;;;;;;;-1.63;100.00;98834.19;10392097;28;20038;-77
2022/03/04 01:53:31;;;;;;;52.42;36.38;;;;;;;-1.67;100.00;98825.56;10398220;28;20095;-77
2022/03/04 01:58:35;;;;;;;54.88;38.38;;;;;;;-1.64;100.00;98829.84;10391450;28;20045;-77
2022/03/04 02:03:40;;;;;;;57.28;38.00;;;;;;;-1.65;100.00;98822.88;10396587;28;20054;-76
2022/03/04 02:08:43;;;;;;;55.25;37.17;;;;;;;-1.65;100.00;98823.72;10396455;28;20041;-77
2022/03/04 02:13:46;;;;;;;51.75;35.78;;;;;;;-1.63;100.00;98816.59;10401497;28;20474;-76
2022/03/04 02:18:51;;;;;;;53.38;36.50;;;;;;;-1.57;100.00;98820.72;10396917;23;20054;-61
2022/03/04 02:23:55;;;;;;;59.00;37.88;;;;;;;-1.57;100.00;98816.28;10408685;28;20042;-60
2022/03/04 02:28:58;;;;;;;50.80;36.17;;;;;;;-1.57;100.00;98831.28;10391646;28;20058;-61
2022/03/04 02:34:01;;;;;;;50.85;36.38;;;;;;;-1.63;100.00;98827.16;10374172;28;20149;-62
2022/03/04 02:39:06;;;;;;;55.10;37.17;;;;;;;-1.67;100.00;98825.56;10373554;28;20090;-60
2022/03/04 02:44:11;;;;;;;57.45;38.35;;;;;;;-1.67;100.00;98828.22;10370165;28;20056;-61
2022/03/04 02:49:14;;;;;;;61.28;38.30;;;;;;;-1.72;100.00;98825.81;10370038;28;20046;-60
2022/03/04 02:54:18;;;;;;;68.85;40.42;;;;;;;-1.67;100.00;98837.94;10370806;28;20065;-60
2022/03/04 02:59:22;;;;;;;61.40;38.30;;;;;;;-1.69;100.00;98831.88;10365703;28;20781;-60
2022/03/04 03:04:25;;;;;;;55.92;37.05;;;;;;;-1.67;100.00;98832.66;10374451;28;20045;-59
2022/03/04 03:09:29;;;;;;;55.55;35.92;;;;;;;-1.64;100.00;98824.56;10364461;28;20113;-59
2022/03/04 03:14:33;;;;;;;50.38;35.03;;;;;;;-1.62;100.00;98828.00;10369257;28;20088;-61
2022/03/04 03:19:35;;;;;;;46.45;31.98;;;;;;;-1.58;100.00;98825.13;10380656;28;20116;-60
2022/03/04 03:24:40;;;;;;;49.38;31.98;;;;;;;-1.58;100.00;98824.28;10389489;28;20048;-60
2022/03/04 03:29:43;;;;;;;50.45;33.22;;;;;;;-1.62;100.00;98839.44;10368934;28;20041;-60
2022/03/04 03:34:46;;;;;;;54.22;34.80;;;;;;;-1.60;100.00;98842.00;10373117;28;20073;-60
2022/03/04 03:39:52;;;;;;;54.63;34.88;;;;;;;-1.57;100.00;98836.56;10370711;28;20076;-59
2022/03/04 03:44:55;;;;;;;58.15;36.35;;;;;;;-1.57;100.00;98853.25;10366374;28;20688;-60
2022/03/04 03:49:58;;;;;;;59.15;37.20;;;;;;;-1.56;100.00;98844.41;10371666;28;20122;-60
2022/03/04 03:55:03;;;;;;;53.55;34.80;;;;;;;-1.55;100.00;98846.13;10375539;28;20081;-60
2022/03/04 04:00:07;;;;;;;48.33;29.30;;;;;;;-1.53;100.00;98842.56;10373652;28;20211;-60
2022/03/04 04:05:16;;;;;;;45.13;29.05;;;;;;;-1.46;100.00;98836.91;10370117;28;20054;-60
2022/03/04 04:10:21;;;;;;;45.05;26.83;;;;;;;-1.42;100.00;98849.03;10373285;28;20518;-60
2022/03/04 04:15:28;;;;;;;45.67;27.75;;;;;;;-1.36;100.00;98852.28;10368282;28;20096;-60
2022/03/04 04:20:31;;;;;;;47.20;29.23;;;;;;;-1.39;100.00;98855.94;10370701;28;20506;-60
2022/03/04 04:25:36;;;;;;;48.97;28.40;;;;;;;-1.43;100.00;98854.38;10385130;28;20634;-61
2022/03/04 04:30:39;;;;;;;45.72;28.35;;;;;;;-1.36;100.00;98854.94;10369679;28;20069;-61
2022/03/04 04:35:42;;;;;;;49.72;27.83;;;;;;;-1.33;100.00;98846.88;10363917;28;20050;-59
2022/03/04 04:40:47;;;;;;;46.47;28.42;;;;;;;-1.33;100.00;98850.34;10368486;28;20038;-60
2022/03/04 04:45:51;;;;;;;47.63;28.08;;;;;;;-1.31;100.00;98843.22;10372850;28;20053;-61
2022/03/04 04:50:54;;;;;;;37.88;23.38;;;;;;;-1.27;100.00;98836.84;10376771;28;20506;-62
2022/03/04 04:55:59;;;;;;;38.47;23.13;;;;;;;-1.24;100.00;98833.19;10371182;28;20092;-61
2022/03/04 05:01:03;;;;;;;38.97;23.45;;;;;;;-1.19;100.00;98844.41;10362364;28;20269;-62
2022/03/04 05:06:06;;;;;;;50.10;29.38;;;;;;;-1.29;100.00;98853.69;10371328;28;20038;-61
2022/03/04 05:11:11;;;;;;;53.80;29.75;;;;;;;-1.31;100.00;98853.78;10360101;28;20050;-61
2022/03/04 05:16:14;;;;;;;53.38;28.70;;;;;;;-1.33;100.00;98857.44;10361229;28;20483;-61
2022/03/04 05:21:17;;;;;;;55.28;30.90;;;;;;;-1.36;100.00;98861.09;10364454;28;20093;-61
2022/03/04 05:26:22;;;;;;;55.17;31.17;;;;;;;-1.33;100.00;98857.44;10360994;28;20405;-61
2022/03/04 05:31:25;;;;;;;55.40;30.45;;;;;;;-1.41;100.00;98858.66;10364173;28;20052;-61
2022/03/04 05:36:28;;;;;;;58.13;31.50;;;;;;;-1.39;100.00;98866.53;10370449;28;20225;-60
2022/03/04 05:41:33;;;;;;;57.03;30.40;;;;;;;-1.37;100.00;98866.44;10371528;28;20052;-62
2022/03/04 05:46:36;;;;;;;49.90;28.98;;;;;;;-1.33;100.00;98876.78;10369526;28;20394;-62
2022/03/04 05:51:39;;;;;;;52.40;29.95;;;;;;;-1.31;100.00;98880.22;10397757;23;20525;-62
2022/03/04 05:56:43;;;;;;;53.13;30.00;;;;;;;-1.33;100.00;98883.88;10405980;28;20060;-61
2022/03/04 06:02:11;;;;;;;62.38;33.05;;;;;;;-1.28;100.00;98880.06;10374586;28;20045;-60
2022/03/04 06:07:15;;;;;;;46.08;26.42;;;;;;;-1.28;100.00;98880.06;10365262;28;20410;-61
2022/03/04 06:12:19;;;;;;;54.65;29.40;;;;;;;-1.25;100.00;98879.06;10366530;28;20045;-60
2022/03/04 06:17:22;;;;;;;48.42;27.20;;;;;;;-1.23;100.00;98886.94;10366490;28;20045;-61
2022/03/04 06:22:25;;;;;;;45.88;25.70;;;;;;;-1.19;100.00;98897.28;10392822;28;20494;-61
2022/03/04 06:27:30;;;;;;;48.90;25.92;;;;;;;-1.18;100.00;98890.19;10363170;28;20502;-60
2022/03/04 06:32:33;;;;;;;46.30;25.88;;;;;;;-1.14;100.00;98886.47;10371933;28;20046;-59
2022/03/04 06:37:36;;;;;;;40.75;23.17;;;;;;;-1.14;100.00;98889.97;10365194;28;20054;-58
2022/03/04 06:42:42;;;;;;;45.05;24.63;;;;;;;-1.09;100.00;98892.38;10364718;28;20064;-58
2022/03/04 06:47:45;;;;;;;47.40;25.92;;;;;;;-1.07;100.00;98893.16;10368587;28;20045;-57
2022/03/04 06:52:48;;;;;;;37.85;21.17;;;;;;;-1.03;100.00;98888.56;10365521;28;20042;-57
2022/03/04 06:57:54;;;;;;;32.42;19.75;;;;;;;-0.98;100.00;98897.13;10371251;28;20343;-58
2022/03/04 07:02:57;;;;;;;30.02;17.38;;;;;;;-0.99;100.00;98906.00;10370711;28;20050;-60
2022/03/04 07:08:00;;;;;;;27.60;17.40;;;;;;;-0.89;100.00;98901.97;10365289;28;20034;-58
2022/03/04 07:13:06;;;;;;;28.02;17.63;;;;;;;-0.83;100.00;98896.38;10373821;28;20041;-60
2022/03/04 07:18:09;;;;;;;31.88;19.48;;;;;;;-0.75;100.00;98905.72;10369293;28;20577;-61
2022/03/04 07:23:14;;;;;;;33.40;19.23;;;;;;;-0.72;100.00;98906.41;10378151;28;20085;-59
2022/03/04 07:28:19;;;;;;;32.22;18.95;;;;;;;-0.64;100.00;98906.00;10370324;28;20115;-63
2022/03/04 07:33:22;;;;;;;28.35;18.13;;;;;;;-0.56;100.00;98903.81;10367880;28;20065;-59
2022/03/04 07:38:25;;;;;;;28.25;17.50;;;;;;;-0.46;100.00;98906.84;10366586;28;20042;-60
2022/03/04 07:43:29;;;;;;;32.00;19.10;;;;;;;-0.44;100.00;98907.63;10362902;28;20045;-58
2022/03/04 07:48:33;;;;;;;32.10;18.73;;;;;;;-0.49;100.00;98914.94;10368844;28;20101;-60
2022/03/04 07:53:36;;;;;;;29.55;17.02;;;;;;;-0.39;100.00;98916.19;10384209;28;20042;-56
2022/03/04 07:58:41;;;;;;;29.45;17.33;;;;;;;-0.28;100.00;98917.41;10362697;28;20049;-59
2022/03/04 08:03:45;;;;;;;26.17;16.42;;;;;;;-0.24;100.00;98918.97;10360709;28;20054;-57
2022/03/04 08:08:48;;;;;;;28.05;17.10;;;;;;;-0.26;100.00;98920.84;10360682;28;20056;-56
2022/03/04 08:13:52;;;;;;;34.75;19.95;;;;;;;-0.17;100.00;98910.63;10368371;28;20046;-58
2022/03/04 08:18:55;;;;;;;31.70;19.85;;;;;;;-0.17;100.00;98915.03;10367281;28;20351;-59
2022/03/04 08:23:58;;;;;;;33.30;20.90;;;;;;;-0.12;100.00;98914.84;10360057;28;20062;-56
2022/03/04 08:29:06;;;;;;;30.33;18.38;;;;;;;-0.10;100.00;98911.16;10360848;28;20494;-58
2022/03/04 08:34:09;;;;;;;33.13;19.90;;;;;;;-0.03;100.00;98917.81;10362247;28;20059;-58
2022/03/04 08:39:12;;;;;;;33.80;19.58;;;;;;;0.03;100.00;98915.81;10364760;28;20061;-57
2022/03/04 08:44:17;;;;;;;28.42;19.05;;;;;;;0.13;100.00;98914.38;10364271;28;20061;-60
2022/03/04 08:49:21;;;;;;;31.67;20.10;;;;;;;0.09;100.00;98926.94;10359620;28;20475;-59
2022/03/04 08:54:25;;;;;;;31.40;20.75;;;;;;;0.10;100.00;98923.34;10360692;28;20119;-61
2022/03/04 08:59:29;;;;;;;30.08;19.10;;;;;;;0.29;100.00;98917.88;10370781;28;20148;-60
2022/03/04 09:04:33;;;;;;;27.17;18.17;;;;;;;0.50;100.00;98915.00;10377319;28;20409;-58
2022/03/04 09:09:38;;;;;;;27.80;18.90;;;;;;;0.66;100.00;98914.13;10373771;28;20073;-59
2022/03/04 09:14:42;;;;;;;25.05;16.33;;;;;;;0.81;100.00;98907.94;10379803;28;20046;-58
2022/03/04 09:19:45;;;;;;;25.30;17.10;;;;;;;0.95;100.00;98916.91;10381456;28;20128;-58
2022/03/04 09:24:59;;;;;;;26.13;17.17;;;;;;;0.99;100.00;98923.78;10376513;28;20192;-59
2022/03/04 09:30:05;;;;;;;24.70;15.93;;;;;;;0.87;100.00;98936.78;10388474;28;20041;-58
2022/03/04 09:35:08;;;;;;;30.40;19.42;;;;;;;0.76;100.00;98948.00;10378891;28;20498;-60
2022/03/04 09:40:13;;;;;;;32.30;20.08;;;;;;;0.66;100.00;98960.06;10383697;28;20555;-60
2022/03/04 09:45:17;;;;;;;35.38;22.45;;;;;;;0.65;100.00;98950.41;10379370;28;20048;-60
2022/03/04 09:50:20;;;;;;;36.08;23.75;;;;;;;0.48;100.00;98951.34;10382984;28;20053;-59
2022/03/04 09:55:23;;;;;;;40.33;25.63;;;;;;;0.48;100.00;98966.38;10383077;28;20046;-59
2022/03/04 10:00:28;;;;;;;39.08;25.08;;;;;;;0.48;100.00;98963.72;10377452;28;20153;-59
2022/03/04 10:05:31;;;;;;;39.20;24.85;;;;;;;0.48;100.00;98961.06;10373156;28;20133;-60
2022/03/04 10:10:34;;;;;;;39.38;24.60;;;;;;;0.44;100.00;98960.38;10380005;28;20133;-60
2022/03/04 10:15:39;;;;;;;40.97;27.33;;;;;;;0.43;100.00;98971.94;10376297;28;20395;-59
2022/03/04 10:20:43;;;;;;;39.53;26.52;;;;;;;0.49;100.00;98970.72;10379868;28;20092;-59
2022/03/04 10:25:49;;;;;;;38.90;26.00;;;;;;;0.56;100.00;98966.81;10374469;28;20083;-59
2022/03/04 10:30:54;;;;;;;38.50;23.75;;;;;;;0.68;100.00;98959.97;10375025;28;20394;-57
2022/03/04 10:36:10;;;;;;;37.30;24.05;;;;;;;0.71;100.00;98971.25;10376727;28;20045;-58
2022/03/04 10:41:24;;;;;;;36.13;24.23;;;;;;;0.80;100.00;98975.19;10365720;28;20049;-54
2022/03/04 10:46:50;;;;;;;34.10;23.40;;;;;;;0.88;100.00;98966.81;10362955;28;20498;-57
2022/03/04 10:52:06;;;;;;;35.78;23.00;;;;;;;0.87;100.00;98962.44;10388818;28;20111;-59
2022/03/04 10:57:09;;;;;;;31.30;22.77;;;;;;;0.86;100.00;98964.25;10373377;28;20064;-60
2022/03/04 11:02:12;;;;;;;35.45;25.02;;;;;;;0.77;100.00;98962.09;10374230;28;20048;-57
2022/03/04 11:07:17;;;;;;;36.70;25.40;;;;;;;0.92;100.00;98963.06;10375963;28;20040;-59
2022/03/04 11:12:20;;;;;;;37.00;25.25;;;;;;;1.00;100.00;98959.97;10383877;28;20512;-56
2022/03/04 11:17:25;;;;;;;34.17;24.50;;;;;;;1.11;100.00;98952.25;10369476;28;20132;-58
2022/03/04 11:22:30;;;;;;;30.73;21.75;;;;;;;1.27;100.00;98952.22;10383887;28;20473;-58
2022/03/04 11:27:39;;;;;;;30.35;20.88;;;;;;;1.38;100.00;98955.09;10381480;28;20038;-57
2022/03/04 11:32:42;;;;;;;28.85;21.10;;;;;;;1.45;100.00;98958.25;10367807;28;20042;-59
2022/03/04 11:37:51;;;;;;;26.08;20.00;;;;;;;1.51;100.00;98951.72;10368196;28;20517;-59
2022/03/04 11:42:54;;;;;;;29.60;21.77;;;;;;;1.67;100.00;98954.31;10365012;28;20502;-56
2022/03/04 11:48:03;;;;;;;28.63;21.90;;;;;;;1.66;100.00;98953.44;10369299;28;20059;-57
2022/03/04 11:53:16;;;;;;;29.20;21.15;;;;;;;1.65;100.00;98957.06;10365986;28;20608;-60
2022/03/04 11:58:19;;;;;;;27.85;20.67;;;;;;;1.73;100.00;98966.38;10367862;28;20050;-59
2022/03/04 12:03:23;;;;;;;26.38;18.60;;;;;;;1.75;100.00;98957.38;10363502;28;20049;-58
2022/03/04 12:08:37;;;;;;;29.40;21.02;;;;;;;1.73;100.00;98964.56;10366705;28;20053;-55
2022/03/04 12:13:42;;;;;;;25.30;19.48;;;;;;;1.72;100.00;98954.88;10372435;28;20034;-58
2022/03/04 12:18:48;;;;;;;22.63;16.83;;;;;;;1.83;100.00;98949.78;10366586;28;20129;-58
2022/03/04 12:24:00;;;;;;;20.38;15.70;;;;;;;1.75;100.00;98944.09;10391288;28;20498;-60
2022/03/04 12:29:19;;;;;;;21.25;15.63;;;;;;;1.88;100.00;98952.19;10373932;28;20049;-59
2022/03/04 12:34:26;;;;;;;22.08;16.98;;;;;;;1.88;100.00;98953.97;10372111;28;20117;-57
2022/03/04 12:39:37;;;;;;;25.40;18.60;;;;;;;1.72;100.00;98957.53;10365349;28;20042;-59
2022/03/04 12:44:41;;;;;;;23.85;19.02;;;;;;;1.77;100.00;98949.28;10376699;28;20048;-60
2022/03/04 12:49:46;;;;;;;27.42;19.33;;;;;;;1.74;100.00;98937.06;10380218;28;20076;-60
2022/03/04 12:54:51;;;;;;;27.52;20.02;;;;;;;1.76;100.00;98948.44;10373978;28;20412;-59
2022/03/04 12:59:54;;;;;;;26.33;20.48;;;;;;;1.68;100.00;98942.75;10370972;28;20140;-58
2022/03/04 13:04:58;;;;;;;26.42;20.17;;;;;;;1.69;100.00;98933.84;10382258;28;20441;-58
2022/03/04 13:10:05;;;;;;;27.63;20.45;;;;;;;1.78;100.00;98935.94;10385100;28;20112;-56
2022/03/04 13:15:10;;;;;;;26.27;20.58;;;;;;;1.74;100.00;98939.72;10395559;28;20092;-57
2022/03/04 13:20:13;;;;;;;26.90;20.23;;;;;;;1.78;100.00;98938.59;10403511;28;20042;-58
2022/03/04 13:25:29;;;;;;;23.30;18.10;;;;;;;1.81;100.00;98930.44;10399100;28;20052;-59
2022/03/04 13:30:47;;;;;;;20.65;16.58;;;;;;;1.81;100.00;98918.94;10398430;28;20087;-59
2022/03/04 13:35:55;;;;;;;19.58;15.18;;;;;;;1.85;100.00;98918.66;10416787;28;20054;-59
2022/03/04 13:41:04;;;;;;;22.65;16.95;;;;;;;1.88;100.00;98919.44;10413349;28;20100;-61
2022/03/04 13:46:11;;;;;;;21.13;16.75;;;;;;;1.84;100.00;98927.56;10377646;28;20046;-58
2022/03/04 13:51:14;;;;;;;24.98;17.50;;;;;;;1.81;100.00;98922.47;10390584;28;20058;-59
2022/03/04 13:56:19;;;;;;;25.55;18.58;;;;;;;1.76;100.00;98913.91;10383107;28;20056;-59
2022/03/04 14:01:22;;;;;;;25.42;18.63;;;;;;;1.83;100.00;98917.06;10367036;28;20421;-58
2022/03/04 14:06:26;;;;;;;26.90;19.75;;;;;;;1.80;100.00;98910.13;10370710;28;20045;-60
2022/03/04 14:11:30;;;;;;;25.48;19.20;;;;;;;1.79;100.00;98919.06;10379604;28;20045;-58
2022/03/04 14:16:33;;;;;;;23.48;18.40;;;;;;;1.70;100.00;98919.63;10378855;28;20050;-59
2022/03/04 14:21:36;;;;;;;24.30;19.15;;;;;;;1.71;100.00;98909.84;10377404;28;20042;-61
2022/03/04 14:26:41;;;;;;;23.45;18.02;;;;;;;1.74;100.00;98910.50;10377036;28;20069;-59
2022/03/04 14:31:44;;;;;;;24.30;18.33;;;;;;;1.79;100.00;98912.88;10379854;28;20049;-60
2022/03/04 14:36:47;;;;;;;27.92;18.95;;;;;;;1.65;100.00;98919.88;10387977;28;20044;-59
2022/03/04 14:42:12;;;;;;;26.05;18.42;;;;;;;1.70;100.00;98922.28;10375196;28;20085;-59
2022/03/04 14:47:17;;;;;;;21.50;17.30;;;;;;;1.72;100.00;98920.34;10376952;28;20069;-57
2022/03/04 14:52:20;;;;;;;18.08;14.40;;;;;;;1.67;100.00;98927.75;10371139;28;20068;-61
2022/03/04 14:57:24;;;;;;;18.65;14.50;;;;;;;1.54;100.00;98928.50;10370777;28;20549;-59
2022/03/04 15:02:27;;;;;;;19.92;13.77;;;;;;;1.59;100.00;98938.00;10364422;28;20058;-60
2022/03/04 15:07:31;;;;;;;18.02;13.18;;;;;;;1.54;100.00;98939.13;10366262;28;20140;-53
2022/03/04 15:12:37;;;;;;;18.00;13.70;;;;;;;1.57;100.00;98942.53;10380440;28;20121;-55
2022/03/04 15:17:40;;;;;;;20.05;14.40;;;;;;;1.60;100.00;98953.84;10373487;28;20065;-59
2022/03/04 15:22:45;;;;;;;18.75;14.23;;;;;;;1.56;100.00;98940.81;10386103;28;20504;-55
2022/03/04 15:27:52;;;;;;;18.25;13.25;;;;;;;1.54;100.00;98936.47;10375219;28;20116;-58
2022/03/04 15:32:59;;;;;;;16.63;12.40;;;;;;;1.61;100.00;98933.41;10378230;28;20038;-57
2022/03/04 15:38:12;;;;;;;16.75;12.75;;;;;;;1.63;100.00;98943.03;10374969;28;20528;-58
2022/03/04 15:43:16;;;;;;;15.57;12.60;;;;;;;1.64;100.00;98942.09;10384515;28;20041;-58
2022/03/04 15:48:19;;;;;;;17.40;12.27;;;;;;;1.64;100.00;98930.59;10388487;28;20053;-58
2022/03/04 15:53:27;;;;;;;16.63;12.00;;;;;;;1.66;100.00;98926.06;10378891;28;20422;-57
2022/03/04 15:58:33;;;;;;;17.30;12.43;;;;;;;1.61;100.00;98936.09;10390479;28;20050;-58
2022/03/04 16:03:36;;;;;;;16.48;12.32;;;;;;;1.63;100.00;98934.19;10373763;28;20534;-58
2022/03/04 16:08:40;;;;;;;15.45;12.07;;;;;;;1.53;100.00;98936.53;10365424;28;20042;-60
2022/03/04 16:13:46;;;;;;;17.70;12.43;;;;;;;1.52;100.00;98935.69;10376625;28;20422;-58
2022/03/04 16:18:49;;;;;;;21.25;15.32;;;;;;;1.54;100.00;98938.25;10374231;28;20064;-60
2022/03/04 16:23:53;;;;;;;26.40;20.10;;;;;;;1.52;100.00;98933.03;10375585;28;20124;-58
2022/03/04 16:28:58;;;;;;;14.90;11.57;;;;;;;1.49;100.00;98935.88;10377941;28;20045;-58
2022/03/04 16:34:01;;;;;;;14.07;11.30;;;;;;;1.50;100.00;98934.91;10376597;28;20050;-58
2022/03/04 16:39:04;;;;;;;13.73;11.15;;;;;;;1.42;100.00;98923.91;10369378;28;20041;-59
2022/03/04 16:44:09;;;;;;;13.35;10.07;;;;;;;1.38;100.00;98928.56;10371429;28;20055;-56
2022/03/04 16:49:12;;;;;;;12.95;10.48;;;;;;;1.31;100.00;98921.03;10367182;28;20067;-59
2022/03/04 16:54:16;;;;;;;12.00;9.80;;;;;;;1.23;100.00;98924.97;10363679;28;20473;-55
2022/03/04 16:59:20;;;;;;;14.18;9.68;;;;;;;1.13;100.00;98920.31;10361609;28;20038;-58
2022/03/04 17:04:38;;;;;;;11.93;9.95;;;;;;;1.02;100.00;98921.78;10381710;28;20129;-58
2022/03/04 17:10:06;;;;;;;11.50;8.50;;;;;;;0.94;100.00;98923.16;10359477;28;20479;-56
2022/03/04 17:15:11;;;;;;;11.23;9.10;;;;;;;0.80;100.00;98927.47;10363847;28;20070;-56
2022/03/04 17:20:14;;;;;;;10.65;8.30;;;;;;;0.77;100.00;98932.94;10362645;28;20044;-57
2022/03/04 17:25:17;;;;;;;11.73;8.95;;;;;;;0.74;100.00;98933.13;10376380;28;20038;-61
2022/03/04 17:30:21;;;;;;;8.90;7.65;;;;;;;0.73;100.00;98936.72;10367344;28;20049;-54
2022/03/04 17:35:25;;;;;;;8.00;6.30;;;;;;;0.70;100.00;98934.22;10371817;28;20057;-59
2022/03/04 17:40:28;;;;;;;7.90;6.22;;;;;;;0.68;100.00;98931.66;10367448;28;20105;-57
2022/03/04 17:45:34;;;;;;;7.75;6.05;;;;;;;0.68;100.00;98929.03;10369731;28;20053;-58
2022/03/04 17:50:37;;;;;;;9.65;8.63;;;;;;;0.68;100.00;98930.81;10371573;28;20049;-58
2022/03/04 17:55:40;;;;;;;11.18;9.52;;;;;;;0.68;100.00;98933.44;10374014;28;20041;-62
2022/03/04 18:00:44;;;;;;;15.95;13.48;;;;;;;0.67;100.00;98934.38;10370810;28;20514;-60
2022/03/04 18:05:47;;;;;;;10.85;8.13;;;;;;;0.66;100.00;98937.97;10376205;28;20045;-58
2022/03/04 18:10:52;;;;;;;6.90;5.53;;;;;;;0.61;100.00;98941.78;10369241;28;20048;-58
2022/03/04 18:15:56;;;;;;;6.95;6.18;;;;;;;0.61;100.00;98936.47;10383245;28;20076;-58
2022/03/04 18:21:00;;;;;;;7.88;5.47;;;;;;;0.60;100.00;98942.69;10383884;28;20502;-58
2022/03/04 18:26:03;;;;;;;8.80;5.72;;;;;;;0.60;100.00;98947.13;10392143;28;20296;-59
2022/03/04 18:31:08;;;;;;;8.63;6.10;;;;;;;0.55;100.00;98939.44;10390790;28;20045;-57
2022/03/04 18:36:12;;;;;;;9.07;6.43;;;;;;;0.51;100.00;98943.22;10379865;28;20473;-55
2022/03/04 18:41:15;;;;;;;7.82;6.13;;;;;;;0.50;100.00;98951.25;10387450;28;21593;-57
2022/03/04 18:46:35;;;;;;;8.73;6.85;;;;;;;0.49;100.00;98946.88;10382074;28;20068;-58
2022/03/04 18:51:38;;;;;;;8.25;7.03;;;;;;;0.45;100.00;98947.06;10390368;28;20068;-59
2022/03/04 18:56:42;;;;;;;9.52;6.75;;;;;;;0.41;100.00;98949.97;10387578;28;20046;-60
2022/03/04 19:01:50;;;;;;;9.23;7.43;;;;;;;0.39;100.00;98949.19;10380777;28;20095;-59
2022/03/04 19:06:54;;;;;;;8.38;7.20;;;;;;;0.36;100.00;98955.50;10381752;28;20497;-59
2022/03/04 19:11:57;;;;;;;8.02;6.97;;;;;;;0.33;100.00;98966.28;10390118;28;20037;-58
2022/03/04 19:17:01;;;;;;;10.70;8.10;;;;;;;0.32;100.00;98958.41;10387473;28;20088;-59
2022/03/04 19:22:06;;;;;;;10.00;7.90;;;;;;;0.32;100.00;98969.00;10392926;28;20043;-58
2022/03/04 19:27:09;;;;;;;13.75;10.73;;;;;;;0.29;100.00;98960.28;10381304;28;20041;-58
2022/03/04 19:32:13;;;;;;;12.18;9.90;;;;;;;0.27;100.00;98964.81;10396787;28;20512;-58
2022/03/04 19:37:16;;;;;;;12.13;8.98;;;;;;;0.28;100.00;98963.03;10390535;28;20501;-57
2022/03/04 19:42:19;;;;;;;11.57;8.07;;;;;;;0.26;100.00;98960.47;10386200;28;20113;-60
2022/03/04 19:47:23;;;;;;;10.15;7.82;;;;;;;0.23;100.00;98965.91;10377700;28;20125;-59
2022/03/04 19:52:26;;;;;;;11.40;7.75;;;;;;;0.22;100.00;98955.41;10382099;28;20064;-59
2022/03/04 19:57:29;;;;;;;12.00;8.27;;;;;;;0.21;100.00;98962.50;10369617;28;20167;-58
2022/03/04 20:02:34;;;;;;;8.88;7.57;;;;;;;0.14;100.00;98963.78;10368181;28;20499;-58
2022/03/04 20:07:38;;;;;;;9.82;7.70;;;;;;;0.11;100.00;98955.97;10369516;28;20069;-61
2022/03/04 20:12:41;;;;;;;8.63;6.97;;;;;;;0.03;100.00;98952.88;10366408;28;20045;-58
2022/03/04 20:17:46;;;;;;;9.32;7.68;;;;;;;-0.06;100.00;98957.72;10365567;28;20477;-58
2022/03/04 20:22:49;;;;;;;11.77;8.40;;;;;;;-0.11;100.00;98961.53;10373260;28;20077;-61
2022/03/04 20:27:52;;;;;;;9.68;7.95;;;;;;;-0.13;100.00;98961.63;10376184;28;20049;-54
2022/03/04 20:32:57;;;;;;;9.93;8.02;;;;;;;-0.19;100.00;98959.31;10369570;28;20052;-60
2022/03/04 20:38:00;;;;;;;9.75;8.07;;;;;;;-0.33;100.00;98962.66;10367861;28;20054;-57
2022/03/04 20:43:03;;;;;;;8.68;7.78;;;;;;;-0.43;100.00;98957.00;10380552;28;20457;-57
2022/03/04 20:48:07;;;;;;;11.95;8.80;;;;;;;-0.51;100.00;98959.16;10383757;28;20058;-58
2022/03/04 20:53:11;;;;;;;10.57;8.27;;;;;;;-0.53;100.00;98961.06;10375386;28;20053;-58
2022/03/04 20:58:14;;;;;;;10.02;8.45;;;;;;;-0.57;100.00;98964.78;10387093;28;20040;-60
2022/03/04 21:03:18;;;;;;;9.90;8.75;;;;;;;-0.60;100.00;98959.63;10374481;28;20050;-57
2022/03/04 21:08:21;;;;;;;9.95;8.25;;;;;;;-0.67;100.00;98965.25;10386722;28;20049;-58
2022/03/04 21:13:24;;;;;;;9.80;8.38;;;;;;;-0.66;100.00;98966.97;10381643;28;20054;-57
2022/03/04 21:18:29;;;;;;;9.18;8.18;;;;;;;-0.67;100.00;98959.09;10375357;28;20053;-57
2022/03/04 21:23:32;;;;;;;10.02;8.38;;;;;;;-0.68;100.00;98963.53;10375839;28;20097;-59
2022/03/04 21:28:36;;;;;;;12.02;8.40;;;;;;;-0.73;100.00;98967.34;10382737;28;20045;-55
2022/03/04 21:33:40;;;;;;;10.30;8.52;;;;;;;-0.79;100.00;98968.50;10382785;28;20124;-56
2022/03/04 21:38:44;;;;;;;10.10;8.93;;;;;;;-0.82;100.00;98971.28;10390059;28;20572;-55
2022/03/04 21:43:47;;;;;;;11.43;9.63;;;;;;;-0.86;100.00;98977.66;10395856;28;20502;-58
2022/03/04 21:48:52;;;;;;;11.02;9.77;;;;;;;-0.87;100.00;98978.59;10390838;28;20080;-56
2022/03/04 21:54:01;;;;;;;12.00;9.52;;;;;;;-0.93;100.00;98988.56;10393688;28;20054;-56
2022/03/04 21:59:04;;;;;;;11.32;8.43;;;;;;;-0.97;100.00;98986.97;10412315;28;20033;-57
2022/03/04 22:04:09;;;;;;;11.43;9.45;;;;;;;-1.04;100.00;98982.94;10427181;28;20034;-58
2022/03/04 22:09:12;;;;;;;12.60;10.05;;;;;;;-1.10;100.00;98978.78;10412300;28;20129;-56
2022/03/04 22:14:16;;;;;;;11.18;9.93;;;;;;;-1.16;100.00;98978.22;10390641;28;20069;-55
2022/03/04 22:19:21;;;;;;;12.82;9.75;;;;;;;-1.23;100.00;98980.31;10391531;28;20113;-56
2022/03/04 22:24:24;;;;;;;13.63;10.55;;;;;;;-1.26;100.00;98983.09;10381127;28;20140;-53
2022/03/04 22:29:28;;;;;;;12.98;10.63;;;;;;;-1.31;100.00;98975.38;10392148;28;20065;-56
2022/03/04 22:34:32;;;;;;;15.35;11.20;;;;;;;-1.36;100.00;98976.53;10392523;28;20064;-55
2022/03/04 22:39:38;;;;;;;14.52;11.57;;;;;;;-1.39;100.00;98977.53;10385338;28;20509;-57
2022/03/04 22:44:42;;;;;;;16.45;11.45;;;;;;;-1.39;100.00;98972.25;10392254;28;20046;-59
2022/03/04 22:49:48;;;;;;;17.60;11.82;;;;;;;-1.41;100.00;98974.09;10384335;28;20612;-54
2022/03/04 22:54:51;;;;;;;14.85;11.73;;;;;;;-1.44;100.00;98967.19;10392447;28;20033;-58
2022/03/04 22:59:54;;;;;;;16.63;11.25;;;;;;;-1.47;100.00;98967.31;10392204;28;20033;-56